Naikai2 — JD2433 — position and weather

sailwx.info

Track history (hours):
 
Tides and Currents Weather Stations Pressure Air Temp Water Temp Dewpoint Dewpoint Depression Visibility Wind Speed Wind Dir Waves Ship Positions

Naikai2

Last reported at 2014-Aug-21 02:33 UTC. Time now 2014-Aug-22 07:57 UTC.
Position N 34°35' E 135°04'.

Length 28 m; draft 2.2 m.

Type: Other ship. MMSI: 431000283.

Date/timePositionNaut miles runAvg speedWind from/ knotsBaromVisibWave heightAir tempDewpointWater temp
2014-Aug-21 02:33N 34°35' E 135°04'6 5.4
2014-Aug-21 01:30N 34°37' E 134°58'1010.8
2014-Aug-21 00:33N 34°39' E 135°10'0 0.0
2014-Aug-20 23:33N 34°39' E 135°10'1 0.1
2014-Aug-20 02:17N 34°38' E 135°09'1014.3
2014-Aug-20 01:33N 34°37' E 134°56'8 7.8
2014-Aug-20 00:34N 34°35' E 135°05'4 4.0
2014-Aug-19 23:33N 34°36' E 135°01'0 0.0
2014-Aug-19 22:33N 34°36' E 135°01'1 1.5
2014-Aug-19 21:33N 34°38' E 135°00'7 7.1
2014-Aug-19 20:33N 34°37' E 135°09'2 2.0
2014-Aug-19 19:33N 34°39' E 135°10'2 0.3
2014-Aug-19 10:34N 34°37' E 135°09'1515.0
2014-Aug-19 09:32N 34°22' E 135°03'3 2.6
2014-Aug-19 08:28N 34°21' E 134°60'1314.2
2014-Aug-19 07:33N 34°32' E 135°06'8 7.3
2014-Aug-19 06:31N 34°37' E 134°59'4 1.6
2014-Aug-19 04:03N 34°35' E 134°55'5 9.3
2014-Aug-19 03:32N 34°36' E 135°01'0 0.0
2014-Aug-19 02:33N 34°36' E 135°01'2 2.3
2014-Aug-19 01:31N 34°37' E 134°58'8 8.3
2014-Aug-19 00:33N 34°35' E 135°08'5 4.6
2014-Aug-18 23:33N 34°39' E 135°10'0 0.0
2014-Aug-18 22:33N 34°39' E 135°10'0 0.0
2014-Aug-18 05:23N 34°39' E 135°10'1113.0
2014-Aug-18 04:33N 34°34' E 135°22'2 1.9
2014-Aug-18 03:33N 34°33' E 135°24'6 5.7
2014-Aug-18 02:33N 34°34' E 135°17'7 6.9
2014-Aug-18 01:33N 34°39' E 135°12'5 4.7
2014-Aug-18 00:33N 34°37' E 135°07'3 0.1
2014-Aug-16 05:21N 34°38' E 135°10'1214.9
2014-Aug-16 04:33N 34°27' E 135°05'10 9.8
2014-Aug-16 03:30N 34°18' E 134°59'1313.4
2014-Aug-16 02:33N 34°28' E 135°08'1212.5
2014-Aug-16 01:33N 34°33' E 135°22'1 1.3
2014-Aug-16 00:33N 34°34' E 135°23'1212.3
2014-Aug-15 23:34N 34°39' E 135°10'0 0.1
2014-Aug-15 22:14N 34°39' E 135°10'0 0.0
2014-Aug-15 02:04N 34°39' E 135°10'510.6
2014-Aug-15 01:33N 34°37' E 135°16'7 6.7
2014-Aug-15 00:32N 34°33' E 135°23'5 5.3
2014-Aug-14 23:33N 34°33' E 135°17'1010.1
2014-Aug-14 22:32N 34°26' E 135°07'1312.7
2014-Aug-14 21:31N 34°15' E 134°60'5 4.8
2014-Aug-14 20:30N 34°20' E 134°59'1414.5
2014-Aug-14 19:33N 34°33' E 135°04'8 7.8
2014-Aug-14 18:33N 34°39' E 135°10'0 0.0
2014-Aug-13 04:33N 34°39' E 135°10'1211.8
2014-Aug-13 03:33N 34°28' E 135°05'1414.5
2014-Aug-13 02:33N 34°15' E 134°58'1010.3
2014-Aug-13 01:34N 34°24' E 135°03'1414.2
2014-Aug-13 00:33N 34°32' E 135°17'5 5.4
2014-Aug-12 23:33N 34°33' E 135°24'6 6.2
2014-Aug-12 22:33N 34°34' E 135°16'7 7.3
2014-Aug-12 21:33N 34°40' E 135°11'8 7.6
2014-Aug-12 20:34N 34°35' E 135°05'1 0.6
2014-Aug-12 19:33N 34°35' E 135°05'7 7.1
2014-Aug-12 18:33N 34°29' E 135°07'1210.6
2014-Aug-12 17:27N 34°19' E 134°60'6 6.2
2014-Aug-12 16:33N 34°13' E 134°59'1414.5
2014-Aug-12 15:33N 34°27' E 135°02'1413.6
2014-Aug-12 14:34N 34°39' E 135°10'0 0.0
2014-Aug-12 07:13N 34°39' E 135°10'913.7
2014-Aug-12 06:33N 34°35' E 135°20'2 1.9
2014-Aug-12 05:31N 34°33' E 135°21'2 2.5
2014-Aug-12 04:33N 34°35' E 135°19'8 8.4
2014-Aug-12 03:34N 34°39' E 135°10'0 0.1
2014-Aug-12 00:30N 34°39' E 135°10'3 2.8
2014-Aug-11 23:34N 34°39' E 135°13'1010.3
2014-Aug-11 22:33N 34°33' E 135°24'8 7.7
2014-Aug-11 21:34N 34°31' E 135°15'1714.1
2014-Aug-11 20:24N 34°20' E 135°01'910.6
2014-Aug-11 19:33N 34°11' E 134°60'8 8.0
2014-Aug-11 18:32N 34°19' E 134°59'1515.4
2014-Aug-11 17:33N 34°33' E 135°06'  
Track history (hours):
 
Tides and Currents Weather Stations Pressure Air Temp Water Temp Dewpoint Dewpoint Depression Visibility Wind Speed Wind Dir Waves Ship Positions

Naikai2

Last reported at 2014-Aug-21 02:33 UTC. Time now 2014-Aug-22 07:57 UTC.
Position N 34°35' E 135°04'.

Length 28 m; draft 2.2 m.

Type: Other ship. MMSI: 431000283.

Date/timePositionNaut miles runAvg speedWind from/ knotsBaromVisibWave heightAir tempDewpointWater temp
2014-Aug-21 02:33N 34°35' E 135°04'6 5.4
2014-Aug-21 01:30N 34°37' E 134°58'1010.8
2014-Aug-21 00:33N 34°39' E 135°10'0 0.0
2014-Aug-20 23:33N 34°39' E 135°10'1 0.1
2014-Aug-20 02:17N 34°38' E 135°09'1014.3
2014-Aug-20 01:33N 34°37' E 134°56'8 7.8
2014-Aug-20 00:34N 34°35' E 135°05'4 4.0
2014-Aug-19 23:33N 34°36' E 135°01'0 0.0
2014-Aug-19 22:33N 34°36' E 135°01'1 1.5
2014-Aug-19 21:33N 34°38' E 135°00'7 7.1
2014-Aug-19 20:33N 34°37' E 135°09'2 2.0
2014-Aug-19 19:33N 34°39' E 135°10'2 0.3
2014-Aug-19 10:34N 34°37' E 135°09'1515.0
2014-Aug-19 09:32N 34°22' E 135°03'3 2.6
2014-Aug-19 08:28N 34°21' E 134°60'1314.2
2014-Aug-19 07:33N 34°32' E 135°06'8 7.3
2014-Aug-19 06:31N 34°37' E 134°59'4 1.6
2014-Aug-19 04:03N 34°35' E 134°55'5 9.3
2014-Aug-19 03:32N 34°36' E 135°01'0 0.0
2014-Aug-19 02:33N 34°36' E 135°01'2 2.3
2014-Aug-19 01:31N 34°37' E 134°58'8 8.3
2014-Aug-19 00:33N 34°35' E 135°08'5 4.6
2014-Aug-18 23:33N 34°39' E 135°10'0 0.0
2014-Aug-18 22:33N 34°39' E 135°10'0 0.0
2014-Aug-18 05:23N 34°39' E 135°10'1113.0
2014-Aug-18 04:33N 34°34' E 135°22'2 1.9
2014-Aug-18 03:33N 34°33' E 135°24'6 5.7
2014-Aug-18 02:33N 34°34' E 135°17'7 6.9
2014-Aug-18 01:33N 34°39' E 135°12'5 4.7
2014-Aug-18 00:33N 34°37' E 135°07'3 0.1
2014-Aug-16 05:21N 34°38' E 135°10'1214.9
2014-Aug-16 04:33N 34°27' E 135°05'10 9.8
2014-Aug-16 03:30N 34°18' E 134°59'1313.4
2014-Aug-16 02:33N 34°28' E 135°08'1212.5
2014-Aug-16 01:33N 34°33' E 135°22'1 1.3
2014-Aug-16 00:33N 34°34' E 135°23'1212.3
2014-Aug-15 23:34N 34°39' E 135°10'0 0.1
2014-Aug-15 22:14N 34°39' E 135°10'0 0.0
2014-Aug-15 02:04N 34°39' E 135°10'510.6
2014-Aug-15 01:33N 34°37' E 135°16'7 6.7
2014-Aug-15 00:32N 34°33' E 135°23'5 5.3
2014-Aug-14 23:33N 34°33' E 135°17'1010.1
2014-Aug-14 22:32N 34°26' E 135°07'1312.7
2014-Aug-14 21:31N 34°15' E 134°60'5 4.8
2014-Aug-14 20:30N 34°20' E 134°59'1414.5
2014-Aug-14 19:33N 34°33' E 135°04'8 7.8
2014-Aug-14 18:33N 34°39' E 135°10'0 0.0
2014-Aug-13 04:33N 34°39' E 135°10'1211.8
2014-Aug-13 03:33N 34°28' E 135°05'1414.5
2014-Aug-13 02:33N 34°15' E 134°58'1010.3
2014-Aug-13 01:34N 34°24' E 135°03'1414.2
2014-Aug-13 00:33N 34°32' E 135°17'5 5.4
2014-Aug-12 23:33N 34°33' E 135°24'6 6.2
2014-Aug-12 22:33N 34°34' E 135°16'7 7.3
2014-Aug-12 21:33N 34°40' E 135°11'8 7.6
2014-Aug-12 20:34N 34°35' E 135°05'1 0.6
2014-Aug-12 19:33N 34°35' E 135°05'7 7.1
2014-Aug-12 18:33N 34°29' E 135°07'1210.6
2014-Aug-12 17:27N 34°19' E 134°60'6 6.2
2014-Aug-12 16:33N 34°13' E 134°59'1414.5
2014-Aug-12 15:33N 34°27' E 135°02'1413.6
2014-Aug-12 14:34N 34°39' E 135°10'0 0.0
2014-Aug-12 07:13N 34°39' E 135°10'913.7
2014-Aug-12 06:33N 34°35' E 135°20'2 1.9
2014-Aug-12 05:31N 34°33' E 135°21'2 2.5
2014-Aug-12 04:33N 34°35' E 135°19'8 8.4
2014-Aug-12 03:34N 34°39' E 135°10'0 0.1
2014-Aug-12 00:30N 34°39' E 135°10'3 2.8
2014-Aug-11 23:34N 34°39' E 135°13'1010.3
2014-Aug-11 22:33N 34°33' E 135°24'8 7.7
2014-Aug-11 21:34N 34°31' E 135°15'1714.1
2014-Aug-11 20:24N 34°20' E 135°01'910.6
2014-Aug-11 19:33N 34°11' E 134°60'8 8.0
2014-Aug-11 18:32N 34°19' E 134°59'1515.4
2014-Aug-11 17:33N 34°33' E 135°06'  

Dump ship's entire track history